Time;durP1;ratioP1;P1;durP2;ratioP2;P2;SDS_P1;SDS_P2;PMS_P1;PMS_P2;Temp;Humidity;BMP_temperature;BMP_pressure;BME280_temperature;BME280_humidity;BME280_pressure;Samples;Min_cycle;Max_cycle;Signal;HPM_P1;HPM_P2
2021/07/30 00:01:36;;;;;;;10.20;7.85;;;;;;;;;;5094690;28;20035;-72
2021/07/30 00:04:02;;;;;;;14.30;8.57;;;;;;;;;;5095181;28;20407;-72
2021/07/30 00:06:28;;;;;;;9.38;8.23;;;;;;;;;;5094716;28;20381;-72
2021/07/30 00:08:54;;;;;;;8.05;7.20;;;;;;;;;;5094591;28;20034;-72
2021/07/30 00:11:20;;;;;;;9.60;8.07;;;;;;;;;;5094513;28;20023;-72
2021/07/30 00:13:46;;;;;;;13.52;7.88;;;;;;;;;;5095162;28;20169;-72
2021/07/30 00:16:12;;;;;;;9.23;7.70;;;;;;;;;;5095105;28;20074;-71
2021/07/30 00:18:38;;;;;;;8.05;6.90;;;;;;;;;;5094279;28;20492;-72
2021/07/30 00:21:04;;;;;;;8.77;7.75;;;;;;;;;;5094384;28;20525;-72
2021/07/30 00:23:30;;;;;;;12.52;8.45;;;;;;;;;;5094670;28;20423;-71
2021/07/30 00:26:00;;;;;;;9.52;8.07;;;;;;;;;;5094463;28;20028;-71
2021/07/30 00:28:26;;;;;;;12.07;7.78;;;;;;;;;;5094418;28;20024;-72
2021/07/30 00:30:52;;;;;;;8.80;7.10;;;;;;;;;;5097198;28;20343;-72
2021/07/30 00:33:18;;;;;;;8.55;7.13;;;;;;;;;;5099187;28;20412;-72
2021/07/30 00:35:44;;;;;;;8.85;7.63;;;;;;;;;;5098478;28;20016;-71
2021/07/30 00:38:10;;;;;;;9.70;8.05;;;;;;;;;;5098371;28;20024;-72
2021/07/30 00:40:36;;;;;;;10.25;7.65;;;;;;;;;;5098567;28;20085;-71
2021/07/30 00:43:04;;;;;;;9.10;7.68;;;;;;;;;;5098186;28;20039;-72
2021/07/30 00:45:31;;;;;;;8.55;7.75;;;;;;;;;;5098894;28;20029;-72
2021/07/30 00:47:57;;;;;;;11.10;8.98;;;;;;;;;;5098241;28;20024;-71
2021/07/30 00:50:23;;;;;;;12.52;7.82;;;;;;;;;;5098353;28;20059;-71
2021/07/30 00:52:49;;;;;;;11.90;7.95;;;;;;;;;;5098574;28;20047;-72
2021/07/30 00:55:15;;;;;;;10.27;7.38;;;;;;;;;;5098429;28;20082;-72
2021/07/30 00:57:41;;;;;;;9.35;7.68;;;;;;;;;;5098032;28;20020;-72
2021/07/30 01:00:08;;;;;;;12.25;8.32;;;;;;;;;;5097939;28;20031;-71
2021/07/30 01:02:34;;;;;;;9.60;7.20;;;;;;;;;;5098400;28;20016;-71
2021/07/30 01:05:00;;;;;;;9.10;8.02;;;;;;;;;;5098490;28;20020;-72
2021/07/30 01:07:26;;;;;;;9.48;7.95;;;;;;;;;;5098083;28;20111;-71
2021/07/30 01:09:52;;;;;;;9.30;6.80;;;;;;;;;;5098066;28;20020;-72
2021/07/30 01:12:18;;;;;;;8.00;7.20;;;;;;;;;;5097476;28;20077;-72
2021/07/30 01:14:44;;;;;;;10.30;7.43;;;;;;;;;;5097774;28;20044;-71
2021/07/30 01:17:10;;;;;;;8.93;7.47;;;;;;;;;;5098365;28;20027;-71
2021/07/30 01:19:36;;;;;;;12.55;7.53;;;;;;;;;;5097742;28;20024;-72
2021/07/30 01:22:07;;;;;;;7.97;7.18;;;;;;;;;;5097770;28;20028;-72
2021/07/30 01:24:34;;;;;;;7.72;6.63;;;;;;;;;;5097635;28;20033;-72
2021/07/30 01:27:00;;;;;;;9.48;6.88;;;;;;;;;;5097555;28;20028;-72
2021/07/30 01:29:29;;;;;;;11.73;7.03;;;;;;;;;;5098055;28;20050;-70
2021/07/30 01:31:55;;;;;;;14.00;6.68;;;;;;;;;;5097462;28;20024;-71
2021/07/30 01:34:21;;;;;;;7.93;7.13;;;;;;;;;;5097764;28;20035;-71
2021/07/30 01:36:47;;;;;;;9.15;6.30;;;;;;;;;;5097587;28;20024;-71
2021/07/30 01:39:13;;;;;;;10.07;7.25;;;;;;;;;;5097301;28;20473;-72
2021/07/30 01:41:40;;;;;;;7.70;6.90;;;;;;;;;;5095802;28;20389;-72
2021/07/30 01:44:06;;;;;;;13.43;7.40;;;;;;;;;;5098055;28;20469;-72
2021/07/30 01:46:32;;;;;;;7.80;7.00;;;;;;;;;;5097745;28;20526;-72
2021/07/30 01:48:58;;;;;;;8.35;6.60;;;;;;;;;;5097249;28;20039;-72
2021/07/30 01:51:24;;;;;;;12.30;7.55;;;;;;;;;;5097155;28;20024;-72
2021/07/30 01:53:51;;;;;;;11.90;6.25;;;;;;;;;;5096755;28;20133;-72
2021/07/30 01:56:17;;;;;;;8.20;6.45;;;;;;;;;;5096694;28;20020;-71
2021/07/30 01:58:43;;;;;;;7.82;7.10;;;;;;;;;;5096895;28;20125;-71
2021/07/30 02:01:09;;;;;;;9.55;6.68;;;;;;;;;;5096676;28;20489;-71
2021/07/30 02:03:35;;;;;;;7.95;6.00;;;;;;;;;;5096874;28;20116;-71
2021/07/30 02:06:06;;;;;;;9.13;6.88;;;;;;;;;;5096877;28;20025;-71
2021/07/30 02:08:32;;;;;;;7.13;6.32;;;;;;;;;;5096989;28;20115;-72
2021/07/30 02:10:58;;;;;;;7.78;6.93;;;;;;;;;;5096545;28;20538;-72
2021/07/30 02:16:10;;;;;;;12.00;7.05;;;;;;;;;;5081957;28;20059;-72
2021/07/30 02:18:36;;;;;;;6.95;6.35;;;;;;;;;;5096703;28;20073;-72
2021/07/30 02:21:02;;;;;;;7.63;6.45;;;;;;;;;;5096448;28;20032;-72
2021/07/30 02:23:28;;;;;;;7.00;6.30;;;;;;;;;;5096865;28;20020;-72
2021/07/30 02:25:54;;;;;;;12.13;6.65;;;;;;;;;;5096377;28;20051;-72
2021/07/30 02:28:20;;;;;;;8.40;6.55;;;;;;;;;;5096198;28;20024;-72
2021/07/30 02:30:46;;;;;;;8.43;6.90;;;;;;;;;;5096107;28;20028;-70
2021/07/30 02:33:12;;;;;;;6.20;5.60;;;;;;;;;;5096101;28;20020;-72
2021/07/30 02:35:38;;;;;;;7.65;6.65;;;;;;;;;;5096321;28;20027;-73
2021/07/30 02:38:04;;;;;;;7.35;6.70;;;;;;;;;;5096024;28;20030;-71
2021/07/30 02:40:30;;;;;;;6.03;5.53;;;;;;;;;;5096520;28;20355;-72
2021/07/30 02:42:57;;;;;;;12.50;6.40;;;;;;;;;;5096161;28;20097;-71
2021/07/30 02:45:23;;;;;;;6.35;5.75;;;;;;;;;;5096135;28;20031;-72
2021/07/30 02:47:49;;;;;;;6.57;5.93;;;;;;;;;;5096066;28;20024;-71
2021/07/30 02:50:15;;;;;;;6.50;5.90;;;;;;;;;;5096054;28;20024;-72
2021/07/30 02:52:41;;;;;;;8.50;7.45;;;;;;;;;;5095653;28;20572;-72
2021/07/30 02:55:07;;;;;;;6.90;5.47;;;;;;;;;;5095704;28;20359;-72
2021/07/30 02:57:33;;;;;;;7.07;6.47;;;;;;;;;;5095781;28;20032;-71
2021/07/30 02:59:59;;;;;;;8.18;6.82;;;;;;;;;;5095563;28;20031;-71
2021/07/30 03:02:25;;;;;;;7.03;6.32;;;;;;;;;;5095845;28;20111;-71
2021/07/30 03:04:51;;;;;;;8.82;6.55;;;;;;;;;;5095739;28;20530;-71
2021/07/30 03:07:17;;;;;;;8.20;5.93;;;;;;;;;;5095376;28;20460;-72
2021/07/30 03:09:43;;;;;;;8.48;6.72;;;;;;;;;;5095685;28;20393;-72
2021/07/30 03:12:09;;;;;;;6.68;6.15;;;;;;;;;;5096137;28;20162;-72
2021/07/30 03:14:35;;;;;;;6.43;5.82;;;;;;;;;;5095859;28;20465;-72
2021/07/30 03:17:01;;;;;;;8.25;6.57;;;;;;;;;;5095867;28;20027;-71
2021/07/30 03:19:28;;;;;;;25.35;10.55;;;;;;;;;;5095312;28;20115;-72
2021/07/30 03:21:54;;;;;;;113.15;40.42;;;;;;;;;;5095065;28;20036;-72
2021/07/30 03:24:20;;;;;;;91.85;33.38;;;;;;;;;;5095860;28;20039;-72
2021/07/30 03:26:46;;;;;;;53.35;20.70;;;;;;;;;;5095236;28;20050;-72
2021/07/30 03:29:12;;;;;;;45.75;19.13;;;;;;;;;;5095233;28;20028;-71
2021/07/30 03:31:38;;;;;;;42.50;18.73;;;;;;;;;;5095012;28;20097;-71
2021/07/30 03:34:04;;;;;;;51.72;17.90;;;;;;;;;;5095301;28;20032;-72
2021/07/30 03:36:30;;;;;;;38.22;16.90;;;;;;;;;;5094822;28;20099;-72
2021/07/30 03:38:56;;;;;;;35.22;15.02;;;;;;;;;;5095196;28;20019;-72
2021/07/30 03:41:22;;;;;;;32.85;13.77;;;;;;;;;;5094994;28;20036;-71
2021/07/30 03:43:48;;;;;;;29.67;12.95;;;;;;;;;;5095544;28;20111;-72
2021/07/30 03:46:14;;;;;;;40.65;14.02;;;;;;;;;;5095298;28;20024;-71
2021/07/30 03:48:40;;;;;;;31.38;13.55;;;;;;;;;;5095061;28;20354;-72
2021/07/30 03:51:06;;;;;;;17.77;9.45;;;;;;;;;;5094834;28;20032;-72
2021/07/30 03:53:32;;;;;;;16.63;10.57;;;;;;;;;;5095121;28;20366;-72
2021/07/30 03:55:58;;;;;;;24.92;10.63;;;;;;;;;;5094694;28;20020;-72
2021/07/30 03:58:24;;;;;;;27.45;11.15;;;;;;;;;;5094538;28;20016;-72
2021/07/30 04:00:50;;;;;;;21.00;10.15;;;;;;;;;;5094633;28;20035;-72
2021/07/30 04:03:17;;;;;;;20.25;10.38;;;;;;;;;;5094779;28;20024;-71
2021/07/30 04:05:43;;;;;;;18.10;10.45;;;;;;;;;;5093589;28;20082;-70
2021/07/30 04:08:09;;;;;;;12.50;9.48;;;;;;;;;;5094585;28;20465;-71
2021/07/30 04:10:35;;;;;;;10.68;8.23;;;;;;;;;;5095078;28;20564;-71
2021/07/30 04:13:01;;;;;;;14.05;8.95;;;;;;;;;;5094506;28;20027;-70
2021/07/30 04:15:27;;;;;;;12.90;8.40;;;;;;;;;;5094457;28;20024;-71
2021/07/30 04:17:53;;;;;;;11.70;8.55;;;;;;;;;;5094577;28;20036;-71
2021/07/30 04:20:19;;;;;;;12.35;8.35;;;;;;;;;;5094339;28;20039;-71
2021/07/30 04:22:45;;;;;;;12.73;8.82;;;;;;;;;;5094236;28;20497;-71
2021/07/30 04:25:11;;;;;;;11.05;8.15;;;;;;;;;;5094457;28;20479;-71
2021/07/30 04:27:37;;;;;;;15.63;8.15;;;;;;;;;;5094561;28;20024;-71
2021/07/30 04:30:04;;;;;;;14.40;7.32;;;;;;;;;;5094545;28;20107;-71
2021/07/30 04:32:30;;;;;;;10.80;7.60;;;;;;;;;;5094520;28;20027;-71
2021/07/30 04:34:56;;;;;;;19.45;9.20;;;;;;;;;;5094414;28;20032;-71
2021/07/30 04:37:22;;;;;;;9.30;8.00;;;;;;;;;;5094091;28;20347;-71
2021/07/30 04:39:48;;;;;;;10.23;7.65;;;;;;;;;;5094688;28;20028;-71
2021/07/30 04:42:14;;;;;;;11.18;7.78;;;;;;;;;;5094410;28;20036;-71
2021/07/30 04:44:40;;;;;;;11.70;9.00;;;;;;;;;;5094438;28;20051;-71
2021/07/30 04:47:06;;;;;;;12.27;8.40;;;;;;;;;;5094278;28;20031;-71
2021/07/30 04:49:32;;;;;;;10.45;7.70;;;;;;;;;;5094213;28;20024;-72
2021/07/30 04:51:58;;;;;;;9.45;8.20;;;;;;;;;;5094761;28;20067;-72
2021/07/30 04:54:24;;;;;;;10.73;8.27;;;;;;;;;;5094812;28;20035;-71
2021/07/30 04:56:50;;;;;;;9.50;6.57;;;;;;;;;;5094107;28;20055;-71
2021/07/30 04:59:16;;;;;;;9.60;8.55;;;;;;;;;;5094071;28;20492;-71
2021/07/30 05:01:43;;;;;;;8.68;7.88;;;;;;;;;;5094109;28;20423;-72
2021/07/30 05:04:10;;;;;;;11.27;8.05;;;;;;;;;;5094219;28;20024;-72
2021/07/30 05:06:36;;;;;;;26.17;7.45;;;;;;;;;;5093863;28;20063;-72
2021/07/30 05:09:02;;;;;;;8.55;7.65;;;;;;;;;;5094080;28;20024;-72
2021/07/30 05:11:28;;;;;;;12.93;7.28;;;;;;;;;;5094577;28;20028;-72
2021/07/30 05:13:54;;;;;;;8.70;7.63;;;;;;;;;;5094459;28;20048;-72
2021/07/30 05:16:21;;;;;;;8.38;7.47;;;;;;;;;;5096074;28;20024;-71
2021/07/30 05:18:47;;;;;;;10.40;8.00;;;;;;;;;;5097360;28;20021;-71
2021/07/30 05:21:13;;;;;;;10.13;7.97;;;;;;;;;;5097225;28;20124;-70
2021/07/30 05:23:39;;;;;;;8.50;6.78;;;;;;;;;;5098414;28;20106;-72
2021/07/30 05:26:05;;;;;;;10.50;8.07;;;;;;;;;;5097957;28;20035;-71
2021/07/30 05:28:31;;;;;;;11.95;8.00;;;;;;;;;;5097804;28;20442;-72
2021/07/30 05:30:58;;;;;;;10.32;7.80;;;;;;;;;;5097608;28;20111;-72
2021/07/30 05:33:25;;;;;;;7.32;6.63;;;;;;;;;;5097714;28;20027;-72
2021/07/30 05:35:51;;;;;;;9.50;8.10;;;;;;;;;;5097493;28;20043;-72
2021/07/30 05:38:17;;;;;;;7.85;7.05;;;;;;;;;;5097657;28;20024;-72
2021/07/30 05:40:43;;;;;;;11.07;7.90;;;;;;;;;;5097782;28;20120;-72
2021/07/30 05:43:09;;;;;;;9.27;7.82;;;;;;;;;;5097590;28;20423;-72
2021/07/30 05:45:35;;;;;;;10.93;7.72;;;;;;;;;;5097367;28;20373;-71
2021/07/30 05:48:02;;;;;;;10.43;8.10;;;;;;;;;;5097173;28;20470;-71
2021/07/30 05:50:28;;;;;;;10.52;7.50;;;;;;;;;;5096840;28;20028;-71
2021/07/30 05:52:54;;;;;;;16.13;7.00;;;;;;;;;;5096818;28;20378;-70
2021/07/30 05:55:20;;;;;;;11.25;7.70;;;;;;;;;;5097036;28;20028;-70
2021/07/30 05:57:46;;;;;;;8.27;7.25;;;;;;;;;;5096666;28;20020;-70
2021/07/30 06:00:12;;;;;;;13.27;7.72;;;;;;;;;;5096324;28;20123;-71
2021/07/30 06:02:38;;;;;;;11.35;8.13;;;;;;;;;;5096425;28;20114;-72
2021/07/30 06:05:05;;;;;;;8.57;7.60;;;;;;;;;;5096846;28;20020;-71
2021/07/30 06:07:34;;;;;;;11.15;6.78;;;;;;;;;;5096624;28;20024;-71
2021/07/30 06:10:00;;;;;;;20.27;7.28;;;;;;;;;;5096551;28;20042;-71
2021/07/30 06:12:26;;;;;;;13.45;9.38;;;;;;;;;;5096722;28;20028;-70
2021/07/30 06:14:52;;;;;;;12.55;6.53;;;;;;;;;;5096735;28;20027;-71
2021/07/30 06:17:18;;;;;;;7.75;7.05;;;;;;;;;;5096459;28;20077;-71
2021/07/30 06:19:44;;;;;;;9.57;6.57;;;;;;;;;;5096820;28;20127;-71
2021/07/30 06:22:10;;;;;;;7.55;6.82;;;;;;;;;;5096347;28;20020;-72
2021/07/30 06:24:37;;;;;;;9.57;6.78;;;;;;;;;;5096850;28;20035;-72
2021/07/30 06:27:04;;;;;;;6.38;5.88;;;;;;;;;;5096099;28;20385;-72
2021/07/30 06:29:30;;;;;;;14.80;6.03;;;;;;;;;;5096445;28;20024;-73
2021/07/30 06:31:56;;;;;;;11.50;6.13;;;;;;;;;;5095958;28;20043;-72
2021/07/30 06:34:22;;;;;;;8.98;6.85;;;;;;;;;;5096314;28;20025;-72
2021/07/30 06:36:48;;;;;;;7.60;6.30;;;;;;;;;;5096602;28;20494;-72
2021/07/30 06:39:14;;;;;;;9.57;6.47;;;;;;;;;;5095619;28;20444;-72
2021/07/30 06:41:40;;;;;;;12.40;6.22;;;;;;;;;;5095936;28;20127;-72
2021/07/30 06:44:06;;;;;;;6.47;5.97;;;;;;;;;;5096403;28;20027;-72
2021/07/30 06:46:33;;;;;;;9.82;6.70;;;;;;;;;;5096000;28;20073;-72
2021/07/30 06:48:59;;;;;;;6.53;6.00;;;;;;;;;;5095918;28;20024;-72
2021/07/30 06:51:25;;;;;;;21.60;7.43;;;;;;;;;;5096180;28;20054;-72
2021/07/30 06:53:51;;;;;;;6.32;5.72;;;;;;;;;;5095535;28;20138;-71
2021/07/30 06:56:18;;;;;;;11.30;7.47;;;;;;;;;;5095539;28;20024;-72
2021/07/30 06:58:44;;;;;;;13.55;6.50;;;;;;;;;;5095570;28;20032;-71
2021/07/30 07:01:10;;;;;;;7.97;5.60;;;;;;;;;;5095413;28;20020;-72
2021/07/30 07:03:37;;;;;;;11.88;6.40;;;;;;;;;;5095460;28;20020;-71
2021/07/30 07:06:03;;;;;;;6.30;5.70;;;;;;;;;;5096081;28;20420;-72
2021/07/30 07:08:29;;;;;;;8.77;6.43;;;;;;;;;;5095636;28;20355;-72
2021/07/30 07:10:55;;;;;;;7.22;5.63;;;;;;;;;;5095572;28;20043;-72
2021/07/30 07:13:21;;;;;;;5.95;5.35;;;;;;;;;;5095775;28;20020;-72
2021/07/30 07:15:47;;;;;;;14.55;5.78;;;;;;;;;;5095594;28;20063;-75
2021/07/30 07:18:13;;;;;;;6.95;5.93;;;;;;;;;;5095351;28;20066;-73
2021/07/30 07:20:39;;;;;;;7.35;5.68;;;;;;;;;;5095248;28;20042;-72
2021/07/30 07:23:05;;;;;;;9.70;5.55;;;;;;;;;;5095402;28;20027;-73
2021/07/30 07:25:31;;;;;;;6.13;5.63;;;;;;;;;;5095147;28;20028;-73
2021/07/30 07:27:57;;;;;;;5.22;4.78;;;;;;;;;;5095215;28;20492;-74
2021/07/30 07:30:23;;;;;;;8.07;5.45;;;;;;;;;;5094961;28;20028;-72
2021/07/30 07:32:49;;;;;;;12.32;6.70;;;;;;;;;;5094726;28;20390;-72
2021/07/30 07:35:16;;;;;;;12.43;5.75;;;;;;;;;;5095678;28;20028;-74
2021/07/30 07:37:42;;;;;;;6.75;5.72;;;;;;;;;;5095068;28;20016;-74
2021/07/30 07:40:08;;;;;;;12.13;5.32;;;;;;;;;;5095130;28;20111;-74
2021/07/30 07:42:34;;;;;;;6.13;5.53;;;;;;;;;;5094670;28;20035;-74
2021/07/30 07:45:01;;;;;;;8.50;5.90;;;;;;;;;;5095320;28;20028;-73
2021/07/30 07:47:27;;;;;;;5.47;5.00;;;;;;;;;;5094722;28;20077;-73
2021/07/30 07:49:53;;;;;;;6.10;5.50;;;;;;;;;;5094404;28;20032;-73
2021/07/30 07:52:19;;;;;;;7.03;5.90;;;;;;;;;;5094535;28;20133;-73
2021/07/30 07:54:46;;;;;;;7.65;5.45;;;;;;;;;;5094565;28;20032;-72
2021/07/30 07:57:12;;;;;;;6.75;5.93;;;;;;;;;;5094301;28;20492;-73
2021/07/30 07:59:38;;;;;;;6.05;5.53;;;;;;;;;;5093889;28;20050;-71
2021/07/30 08:02:06;;;;;;;7.30;5.18;;;;;;;;;;5094070;28;20055;-73
2021/07/30 08:04:33;;;;;;;5.90;5.00;;;;;;;;;;5094475;28;20454;-73
2021/07/30 08:07:02;;;;;;;5.85;4.95;;;;;;;;;;5094615;28;20024;-72
2021/07/30 08:09:29;;;;;;;5.97;5.38;;;;;;;;;;5094412;28;20386;-72
2021/07/30 08:11:55;;;;;;;5.05;4.65;;;;;;;;;;5094026;28;20113;-73
2021/07/30 08:14:21;;;;;;;5.70;5.07;;;;;;;;;;5093997;28;20110;-74
2021/07/30 08:16:47;;;;;;;5.95;5.28;;;;;;;;;;5093782;28;20085;-73
2021/07/30 08:19:14;;;;;;;10.48;5.32;;;;;;;;;;5094048;28;20217;-76
2021/07/30 08:21:40;;;;;;;9.00;5.40;;;;;;;;;;5094268;28;20477;-75
2021/07/30 08:24:06;;;;;;;5.20;4.70;;;;;;;;;;5094684;28;20063;-74
2021/07/30 08:26:32;;;;;;;9.65;5.20;;;;;;;;;;5094494;28;20027;-75
2021/07/30 08:28:58;;;;;;;11.23;5.18;;;;;;;;;;5094370;28;20028;-75
2021/07/30 08:31:24;;;;;;;10.00;5.72;;;;;;;;;;5094307;28;20024;-75
2021/07/30 08:33:50;;;;;;;5.63;4.72;;;;;;;;;;5095155;28;20557;-74
2021/07/30 08:36:17;;;;;;;4.95;4.45;;;;;;;;;;5094383;28;20358;-74
2021/07/30 08:38:43;;;;;;;5.18;4.78;;;;;;;;;;5094074;28;20465;-74
2021/07/30 08:41:09;;;;;;;6.38;5.80;;;;;;;;;;5094110;28;20469;-74
2021/07/30 08:43:35;;;;;;;8.27;4.13;;;;;;;;;;5094602;28;20456;-74
2021/07/30 08:46:01;;;;;;;6.70;4.63;;;;;;;;;;5094293;28;20046;-72
2021/07/30 08:48:28;;;;;;;7.45;4.72;;;;;;;;;;5093944;28;20016;-76
2021/07/30 08:50:54;;;;;;;11.88;6.22;;;;;;;;;;5095128;28;20496;-73
2021/07/30 08:53:22;;;;;;;5.40;4.90;;;;;;;;;;5097999;28;20044;-73
2021/07/30 08:55:48;;;;;;;5.35;4.95;;;;;;;;;;5098347;28;20024;-73
2021/07/30 08:58:14;;;;;;;6.18;5.25;;;;;;;;;;5098130;28;20055;-75
2021/07/30 09:00:40;;;;;;;5.28;4.55;;;;;;;;;;5097898;28;20043;-74
2021/07/30 09:03:06;;;;;;;6.18;4.55;;;;;;;;;;5098498;28;20020;-74
2021/07/30 09:05:33;;;;;;;5.25;4.85;;;;;;;;;;5097994;28;20099;-74
2021/07/30 09:08:00;;;;;;;5.22;4.72;;;;;;;;;;5098346;28;20028;-74
2021/07/30 09:10:27;;;;;;;6.55;5.18;;;;;;;;;;5098063;28;20432;-74
2021/07/30 09:13:09;;;;;;;5.82;5.32;;;;;;;;;;5097839;28;20485;-75
2021/07/30 09:15:36;;;;;;;5.20;4.72;;;;;;;;;;5098255;28;20081;-74
2021/07/30 09:18:02;;;;;;;6.03;5.40;;;;;;;;;;5097760;28;20020;-74
2021/07/30 09:20:28;;;;;;;4.95;4.47;;;;;;;;;;5097918;28;20035;-74
2021/07/30 09:22:54;;;;;;;5.63;5.13;;;;;;;;;;5097678;28;20105;-74
2021/07/30 09:25:36;;;;;;;8.05;5.00;;;;;;;;;;5097841;28;20027;-74
2021/07/30 09:28:02;;;;;;;;;;;;;;;;;;5097987;28;20076;-73
2021/07/30 09:30:28;;;;;;;5.20;4.70;;;;;;;;;;5097469;28;19970;-73
2021/07/30 09:32:54;;;;;;;5.20;4.70;;;;;;;;;;5097382;28;20028;-74
2021/07/30 09:35:20;;;;;;;5.00;4.60;;;;;;;;;;5098001;28;20495;-73
2021/07/30 09:37:46;;;;;;;8.48;5.20;;;;;;;;;;5097506;28;20358;-73
2021/07/30 09:40:20;;;;;;;5.78;5.18;;;;;;;;;;5097046;28;20035;-74
2021/07/30 09:42:46;;;;;;;5.82;5.32;;;;;;;;;;5097948;28;20016;-74
2021/07/30 09:45:13;;;;;;;6.22;4.63;;;;;;;;;;5096975;28;20070;-74
2021/07/30 09:47:47;;;;;;;6.57;4.72;;;;;;;;;;5097193;28;20485;-74
2021/07/30 09:50:13;;;;;;;5.10;4.60;;;;;;;;;;5096917;28;20024;-73
2021/07/30 09:52:41;;;;;;;5.10;4.70;;;;;;;;;;5096610;28;20355;-74
2021/07/30 09:55:08;;;;;;;5.28;4.78;;;;;;;;;;5097472;28;20035;-74
2021/07/30 09:57:35;;;;;;;5.72;5.00;;;;;;;;;;5096679;28;20035;-74
2021/07/30 10:00:03;;;;;;;7.03;5.90;;;;;;;;;;5096478;28;20027;-73
2021/07/30 10:02:29;;;;;;;5.45;4.95;;;;;;;;;;5095445;28;20031;-74
2021/07/30 10:04:55;;;;;;;5.78;5.35;;;;;;;;;;5096910;28;20020;-74
2021/07/30 10:07:22;;;;;;;5.18;4.50;;;;;;;;;;5096327;28;20052;-73
2021/07/30 10:09:53;;;;;;;6.78;5.20;;;;;;;;;;5097418;28;20089;-73
2021/07/30 10:12:19;;;;;;;5.60;5.10;;;;;;;;;;5096726;28;20024;-73
2021/07/30 10:14:46;;;;;;;5.82;4.85;;;;;;;;;;5096547;28;20107;-73
2021/07/30 10:17:13;;;;;;;5.82;5.32;;;;;;;;;;5096580;28;20077;-73
2021/07/30 10:19:39;;;;;;;5.80;5.28;;;;;;;;;;5096354;28;20035;-73
2021/07/30 10:22:07;;;;;;;4.63;4.22;;;;;;;;;;5096081;28;20072;-73
2021/07/30 10:24:34;;;;;;;7.85;5.50;;;;;;;;;;5097103;28;20027;-73
2021/07/30 10:27:00;;;;;;;4.90;4.50;;;;;;;;;;5096382;28;20024;-73
2021/07/30 10:29:27;;;;;;;5.03;4.63;;;;;;;;;;5096401;28;20046;-74
2021/07/30 10:31:53;;;;;;;5.30;4.80;;;;;;;;;;5096160;28;20020;-73
2021/07/30 10:34:39;;;;;;;5.10;4.70;;;;;;;;;;5096426;28;20020;-73
2021/07/30 10:37:05;;;;;;;5.32;4.82;;;;;;;;;;5081946;28;20055;-74
2021/07/30 10:39:31;;;;;;;5.32;4.82;;;;;;;;;;5095849;28;20047;-74
2021/07/30 10:42:12;;;;;;;4.85;4.35;;;;;;;;;;5096500;28;20024;-74
2021/07/30 10:44:58;;;;;;;5.60;5.10;;;;;;;;;;5096217;28;20020;-74
2021/07/30 10:47:24;;;;;;;5.38;4.88;;;;;;;;;;5080768;28;20386;-74
2021/07/30 10:49:50;;;;;;;5.38;4.95;;;;;;;;;;5096031;28;20379;-74
2021/07/30 10:52:25;;;;;;;5.50;5.00;;;;;;;;;;5096228;28;20060;-74
2021/07/30 10:54:51;;;;;;;5.07;4.57;;;;;;;;;;5095934;28;20058;-74
2021/07/30 10:57:37;;;;;;;4.63;4.32;;;;;;;;;;5095794;28;20016;-72
2021/07/30 11:00:05;;;;;;;5.05;4.53;;;;;;;;;;5080585;28;20028;-74
2021/07/30 11:02:51;;;;;;;4.63;4.20;;;;;;;;;;5095531;28;20032;-74
2021/07/30 11:05:17;;;;;;;5.07;4.57;;;;;;;;;;5080836;28;20055;-74
2021/07/30 11:07:43;;;;;;;5.78;5.22;;;;;;;;;;5095432;28;20036;-74
2021/07/30 11:10:13;;;;;;;7.72;5.55;;;;;;;;;;5095358;28;20024;-74
2021/07/30 11:12:39;;;;;;;4.88;4.47;;;;;;;;;;5095233;28;20020;-74
2021/07/30 11:15:08;;;;;;;5.05;4.65;;;;;;;;;;5094832;28;20381;-74
2021/07/30 11:17:35;;;;;;;5.28;4.85;;;;;;;;;;5095650;28;20032;-74
2021/07/30 11:20:02;;;;;;;5.47;4.85;;;;;;;;;;5095384;28;20032;-74
2021/07/30 11:22:28;;;;;;;6.05;4.57;;;;;;;;;;5095544;28;20031;-75
2021/07/30 11:24:54;;;;;;;7.47;4.35;;;;;;;;;;5095254;28;20111;-75
2021/07/30 11:27:21;;;;;;;6.00;5.32;;;;;;;;;;5095676;28;20028;-74
2021/07/30 11:29:48;;;;;;;4.88;4.38;;;;;;;;;;5095357;28;20488;-74
2021/07/30 11:32:15;;;;;;;6.50;5.55;;;;;;;;;;5095344;28;20028;-74
2021/07/30 11:34:42;;;;;;;5.43;4.97;;;;;;;;;;5095567;28;20024;-74
2021/07/30 11:37:09;;;;;;;5.68;5.18;;;;;;;;;;5094794;28;20055;-75
2021/07/30 11:39:39;;;;;;;5.55;5.05;;;;;;;;;;5094817;28;20032;-73
2021/07/30 11:42:05;;;;;;;6.47;5.88;;;;;;;;;;5094818;28;20157;-74
2021/07/30 11:44:41;;;;;;;7.90;5.30;;;;;;;;;;5095425;28;20031;-74
2021/07/30 11:47:07;;;;;;;5.82;5.32;;;;;;;;;;5095363;28;20113;-75
2021/07/30 11:49:34;;;;;;;5.40;4.78;;;;;;;;;;5094974;28;20020;-74
2021/07/30 11:52:02;;;;;;;6.05;5.43;;;;;;;;;;5094833;28;20354;-74
2021/07/30 11:54:28;;;;;;;5.43;4.93;;;;;;;;;;5095394;28;20565;-73
2021/07/30 11:56:54;;;;;;;5.95;5.45;;;;;;;;;;5094966;28;20032;-73
2021/07/30 11:59:20;;;;;;;5.82;5.30;;;;;;;;;;5094743;28;20488;-74
2021/07/30 12:02:06;;;;;;;5.57;4.95;;;;;;;;;;5094715;28;20039;-74
2021/07/30 12:04:33;;;;;;;6.72;5.53;;;;;;;;;;5079994;28;20020;-76
2021/07/30 12:07:08;;;;;;;6.45;5.93;;;;;;;;;;5094821;28;20052;-76
2021/07/30 12:09:34;;;;;;;7.22;6.53;;;;;;;;;;5095083;28;20028;-75
2021/07/30 12:12:01;;;;;;;7.38;6.25;;;;;;;;;;5094529;28;20496;-76
2021/07/30 12:14:28;;;;;;;7.88;5.80;;;;;;;;;;5094610;28;20477;-75
2021/07/30 12:16:56;;;;;;;7.78;6.72;;;;;;;;;;5094244;28;20059;-76
2021/07/30 12:19:30;;;;;;;6.80;6.10;;;;;;;;;;5094426;28;20055;-75
2021/07/30 12:21:56;;;;;;;7.47;6.07;;;;;;;;;;5094985;28;20032;-76
2021/07/30 12:24:22;;;;;;;7.05;6.35;;;;;;;;;;5094838;28;20076;-73
2021/07/30 12:26:48;;;;;;;6.50;5.90;;;;;;;;;;5094042;28;20028;-73
2021/07/30 12:29:34;;;;;;;7.00;6.32;;;;;;;;;;5094365;28;20469;-73
2021/07/30 12:32:20;;;;;;;6.28;5.78;;;;;;;;;;5080261;28;20024;-72
2021/07/30 12:34:54;;;;;;;5.78;5.28;;;;;;;;;;5079835;28;20420;-72
2021/07/30 12:37:20;;;;;;;6.35;5.80;;;;;;;;;;5094449;28;20050;-73
2021/07/30 12:39:47;;;;;;;6.32;5.72;;;;;;;;;;5094381;28;20036;-72
2021/07/30 12:42:18;;;;;;;6.65;5.95;;;;;;;;;;5094156;28;20481;-73
2021/07/30 12:44:58;;;;;;;6.35;5.85;;;;;;;;;;5094923;28;20070;-72
2021/07/30 12:47:24;;;;;;;7.57;6.15;;;;;;;;;;5094392;28;20055;-73
2021/07/30 12:49:52;;;;;;;6.60;5.85;;;;;;;;;;5094423;28;20024;-72
2021/07/30 12:52:18;;;;;;;6.97;6.13;;;;;;;;;;5094078;28;20054;-72
2021/07/30 12:54:44;;;;;;;6.32;5.60;;;;;;;;;;5093746;28;20028;-72
2021/07/30 12:57:10;;;;;;;6.07;5.57;;;;;;;;;;5094739;28;20028;-72
2021/07/30 12:59:56;;;;;;;6.25;5.75;;;;;;;;;;5093901;28;20385;-73
2021/07/30 13:02:23;;;;;;;5.72;5.10;;;;;;;;;;5079171;28;20031;-74
2021/07/30 13:04:49;;;;;;;7.07;5.40;;;;;;;;;;5094031;28;20028;-74
2021/07/30 13:07:15;;;;;;;7.07;6.47;;;;;;;;;;5093913;28;20029;-74
2021/07/30 13:09:41;;;;;;;5.35;4.88;;;;;;;;;;5094665;28;20020;-74
2021/07/30 13:12:07;;;;;;;5.55;5.05;;;;;;;;;;5094053;28;20051;-74
2021/07/30 13:14:33;;;;;;;7.35;5.50;;;;;;;;;;5094487;28;20030;-73
2021/07/30 13:16:59;;;;;;;6.20;5.60;;;;;;;;;;5093874;28;20408;-74
2021/07/30 13:19:26;;;;;;;6.35;5.65;;;;;;;;;;5094088;28;20112;-74
2021/07/30 13:21:53;;;;;;;6.18;5.70;;;;;;;;;;5093877;28;20377;-74
2021/07/30 13:24:19;;;;;;;11.50;5.70;;;;;;;;;;5094337;28;20024;-74
2021/07/30 13:26:45;;;;;;;5.28;4.78;;;;;;;;;;5094386;28;20027;-73
2021/07/30 13:29:11;;;;;;;5.18;4.78;;;;;;;;;;5093857;28;20021;-73
2021/07/30 13:31:37;;;;;;;5.72;5.28;;;;;;;;;;5094051;28;20051;-73
2021/07/30 13:34:05;;;;;;;5.90;5.28;;;;;;;;;;5093823;28;20020;-72
2021/07/30 13:36:31;;;;;;;5.95;5.35;;;;;;;;;;5094216;28;20024;-73
2021/07/30 13:38:57;;;;;;;6.13;5.53;;;;;;;;;;5097596;28;20028;-73
2021/07/30 13:41:23;;;;;;;6.07;5.45;;;;;;;;;;5097255;28;20062;-73
2021/07/30 13:43:49;;;;;;;6.63;6.05;;;;;;;;;;5097726;28;20028;-73
2021/07/30 13:46:15;;;;;;;7.45;5.22;;;;;;;;;;5097553;28;20021;-74
2021/07/30 13:48:41;;;;;;;6.75;5.82;;;;;;;;;;5097057;28;20031;-74
2021/07/30 13:51:07;;;;;;;5.70;5.22;;;;;;;;;;5097095;28;20024;-74
2021/07/30 13:53:35;;;;;;;5.68;5.18;;;;;;;;;;5097570;28;20091;-73
2021/07/30 13:56:02;;;;;;;5.78;5.18;;;;;;;;;;5097605;28;20028;-74
2021/07/30 13:58:28;;;;;;;7.38;5.18;;;;;;;;;;5097411;28;20074;-73
2021/07/30 14:00:54;;;;;;;5.43;4.93;;;;;;;;;;5097125;28;20145;-75
2021/07/30 14:03:20;;;;;;;5.82;5.25;;;;;;;;;;5097147;28;20088;-74
2021/07/30 14:05:46;;;;;;;5.57;5.07;;;;;;;;;;5096767;28;20023;-75
2021/07/30 14:08:13;;;;;;;5.85;4.93;;;;;;;;;;5096929;28;20070;-75
2021/07/30 14:10:39;;;;;;;5.47;4.97;;;;;;;;;;5096962;28;20157;-75
2021/07/30 14:13:05;;;;;;;5.70;5.20;;;;;;;;;;5097291;28;20028;-75
2021/07/30 14:15:31;;;;;;;5.50;5.07;;;;;;;;;;5096767;28;20020;-73
2021/07/30 14:17:57;;;;;;;11.07;6.35;;;;;;;;;;5096774;28;20055;-72
2021/07/30 14:20:23;;;;;;;5.70;5.10;;;;;;;;;;5096235;28;20020;-73
2021/07/30 14:22:49;;;;;;;5.32;4.82;;;;;;;;;;5097400;28;20031;-72
2021/07/30 14:25:15;;;;;;;5.05;4.55;;;;;;;;;;5097094;28;20028;-74
2021/07/30 14:27:42;;;;;;;6.00;5.40;;;;;;;;;;5096303;28;20418;-75
2021/07/30 14:30:08;;;;;;;6.18;5.10;;;;;;;;;;5096324;28;20077;-75
2021/07/30 14:32:34;;;;;;;6.32;5.75;;;;;;;;;;5096467;28;20035;-74
2021/07/30 14:35:00;;;;;;;6.10;5.50;;;;;;;;;;5096325;28;20077;-75
2021/07/30 14:37:26;;;;;;;5.80;5.13;;;;;;;;;;5096040;28;20028;-75
2021/07/30 14:39:52;;;;;;;6.45;4.40;;;;;;;;;;5096621;28;20020;-75